sensor_id;sensor_type;location;lat;lon;timestamp;pressure;altitude;pressure_sealevel;temperature;humidity
52745;BME280;38637;49.984;20.426;2023-12-29T00:00:47;99265.88;;;5.32;90.14
52745;BME280;38637;49.984;20.426;2023-12-29T00:03:12;99294.91;;;5.43;90.68
52745;BME280;38637;49.984;20.426;2023-12-29T00:05:37;99312.63;;;5.58;90.36
52745;BME280;38637;49.984;20.426;2023-12-29T00:08:03;99301.59;;;5.41;90.91
52745;BME280;38637;49.984;20.426;2023-12-29T00:10:28;99293.66;;;5.27;91.39
52745;BME280;38637;49.984;20.426;2023-12-29T00:12:53;99324.03;;;5.48;91.40
52745;BME280;38637;49.984;20.426;2023-12-29T00:15:19;99323.16;;;5.47;91.52
52745;BME280;38637;49.984;20.426;2023-12-29T00:17:45;99303.06;;;5.25;91.80
52745;BME280;38637;49.984;20.426;2023-12-29T00:20:11;99293.63;;;5.16;92.03
52745;BME280;38637;49.984;20.426;2023-12-29T00:22:37;99333.28;;;5.40;91.91
52745;BME280;38637;49.984;20.426;2023-12-29T00:25:02;99316.81;;;5.42;91.42
52745;BME280;38637;49.984;20.426;2023-12-29T00:27:28;99302.41;;;5.41;91.71
52745;BME280;38637;49.984;20.426;2023-12-29T00:29:53;99313.19;;;5.48;91.96
52745;BME280;38637;49.984;20.426;2023-12-29T00:32:19;99311.41;;;5.53;92.00
52745;BME280;38637;49.984;20.426;2023-12-29T00:34:44;99239.00;;;5.19;91.43
52745;BME280;38637;49.984;20.426;2023-12-29T00:37:09;99308.75;;;5.65;92.33
52745;BME280;38637;49.984;20.426;2023-12-29T00:39:35;99267.88;;;5.55;92.17
52745;BME280;38637;49.984;20.426;2023-12-29T00:42:04;99309.50;;;5.72;92.34
52745;BME280;38637;49.984;20.426;2023-12-29T00:44:30;99276.59;;;5.69;91.89
52745;BME280;38637;49.984;20.426;2023-12-29T00:46:55;99300.78;;;5.82;92.45
52745;BME280;38637;49.984;20.426;2023-12-29T00:49:20;99297.84;;;5.84;93.04
52745;BME280;38637;49.984;20.426;2023-12-29T00:51:47;99296.81;;;5.85;93.17
52745;BME280;38637;49.984;20.426;2023-12-29T00:54:12;99296.09;;;5.89;92.93
52745;BME280;38637;49.984;20.426;2023-12-29T00:56:38;99285.97;;;5.85;92.93
52745;BME280;38637;49.984;20.426;2023-12-29T00:59:03;99292.91;;;5.92;92.62
52745;BME280;38637;49.984;20.426;2023-12-29T01:01:33;99295.19;;;5.95;92.65
52745;BME280;38637;49.984;20.426;2023-12-29T01:03:58;99274.03;;;5.74;93.27
52745;BME280;38637;49.984;20.426;2023-12-29T01:06:24;99310.03;;;5.93;93.08
52745;BME280;38637;49.984;20.426;2023-12-29T01:08:49;99291.06;;;5.93;92.73
52745;BME280;38637;49.984;20.426;2023-12-29T01:11:14;99291.06;;;5.93;92.94
52745;BME280;38637;49.984;20.426;2023-12-29T01:13:40;99236.78;;;5.58;92.48
52745;BME280;38637;49.984;20.426;2023-12-29T01:16:05;99288.13;;;5.94;92.40
52745;BME280;38637;49.984;20.426;2023-12-29T01:18:32;99283.13;;;5.91;92.03
52745;BME280;38637;49.984;20.426;2023-12-29T01:20:57;99260.47;;;5.74;91.95
52745;BME280;38637;49.984;20.426;2023-12-29T01:23:22;99271.91;;;5.76;92.23
52745;BME280;38637;49.984;20.426;2023-12-29T01:25:48;99262.47;;;5.67;92.37
52745;BME280;38637;49.984;20.426;2023-12-29T01:28:13;99287.09;;;5.77;92.45
52745;BME280;38637;49.984;20.426;2023-12-29T01:30:38;99286.88;;;5.79;92.11
52745;BME280;38637;49.984;20.426;2023-12-29T01:33:04;99241.97;;;5.59;92.28
52745;BME280;38637;49.984;20.426;2023-12-29T01:35:29;99252.09;;;5.64;92.52
52745;BME280;38637;49.984;20.426;2023-12-29T01:37:54;99276.53;;;5.75;92.27
52745;BME280;38637;49.984;20.426;2023-12-29T01:40:22;99279.22;;;5.75;92.74
52745;BME280;38637;49.984;20.426;2023-12-29T01:42:47;99274.03;;;5.74;92.73
52745;BME280;38637;49.984;20.426;2023-12-29T01:45:23;99250.81;;;5.66;92.42
52745;BME280;38637;49.984;20.426;2023-12-29T01:47:49;99167.97;;;5.23;92.34
52745;BME280;38637;49.984;20.426;2023-12-29T01:50:17;99259.66;;;5.73;92.63
52745;BME280;38637;49.984;20.426;2023-12-29T01:52:43;99249.66;;;5.74;92.74
52745;BME280;38637;49.984;20.426;2023-12-29T01:55:12;99214.50;;;5.56;92.76
52745;BME280;38637;49.984;20.426;2023-12-29T01:57:41;99228.78;;;5.63;92.49
52745;BME280;38637;49.984;20.426;2023-12-29T02:00:07;99237.28;;;5.66;92.84
52745;BME280;38637;49.984;20.426;2023-12-29T02:02:33;99231.47;;;5.63;93.07
52745;BME280;38637;49.984;20.426;2023-12-29T02:04:58;99221.56;;;5.57;93.44
52745;BME280;38637;49.984;20.426;2023-12-29T02:07:26;99236.31;;;5.61;93.50
52745;BME280;38637;49.984;20.426;2023-12-29T02:09:56;99191.28;;;5.36;93.75
52745;BME280;38637;49.984;20.426;2023-12-29T02:12:21;99197.28;;;5.38;93.55
52745;BME280;38637;49.984;20.426;2023-12-29T02:14:47;99221.47;;;5.51;94.10
52745;BME280;38637;49.984;20.426;2023-12-29T02:17:31;99194.31;;;5.28;93.89
52745;BME280;38637;49.984;20.426;2023-12-29T02:19:58;99210.25;;;5.36;93.74
52745;BME280;38637;49.984;20.426;2023-12-29T02:22:24;99185.09;;;5.17;93.81
52745;BME280;38637;49.984;20.426;2023-12-29T02:24:49;99224.72;;;5.30;93.94
52745;BME280;38637;49.984;20.426;2023-12-29T02:27:27;99220.94;;;5.31;94.53
52745;BME280;38637;49.984;20.426;2023-12-29T02:32:39;99210.34;;;5.29;94.18
52745;BME280;38637;49.984;20.426;2023-12-29T02:35:08;99201.34;;;5.17;94.38
52745;BME280;38637;49.984;20.426;2023-12-29T02:37:36;99191.81;;;5.15;93.87
52745;BME280;38637;49.984;20.426;2023-12-29T02:40:02;99218.19;;;5.19;93.80
52745;BME280;38637;49.984;20.426;2023-12-29T02:42:28;99182.44;;;4.87;94.26
52745;BME280;38637;49.984;20.426;2023-12-29T02:44:53;99183.72;;;4.84;94.04
52745;BME280;38637;49.984;20.426;2023-12-29T02:47:19;99163.28;;;4.70;94.68
52745;BME280;38637;49.984;20.426;2023-12-29T02:49:46;99217.88;;;4.97;95.06
52745;BME280;38637;49.984;20.426;2023-12-29T02:52:12;99124.59;;;4.40;95.25
52745;BME280;38637;49.984;20.426;2023-12-29T02:54:37;99199.38;;;4.94;95.54
52745;BME280;38637;49.984;20.426;2023-12-29T02:57:02;99200.13;;;5.01;95.58
52745;BME280;38637;49.984;20.426;2023-12-29T02:59:28;99193.53;;;4.97;95.57
52745;BME280;38637;49.984;20.426;2023-12-29T03:01:53;99207.56;;;5.06;95.77
52745;BME280;38637;49.984;20.426;2023-12-29T03:04:18;99217.16;;;5.02;95.03
52745;BME280;38637;49.984;20.426;2023-12-29T03:06:44;99152.78;;;4.62;95.37
52745;BME280;38637;49.984;20.426;2023-12-29T03:09:09;99204.53;;;4.84;95.45
52745;BME280;38637;49.984;20.426;2023-12-29T03:11:35;99202.66;;;4.84;95.93
52745;BME280;38637;49.984;20.426;2023-12-29T03:14:00;99189.78;;;4.80;95.41
52745;BME280;38637;49.984;20.426;2023-12-29T03:16:25;99202.84;;;4.83;95.11
52745;BME280;38637;49.984;20.426;2023-12-29T03:18:50;99192.59;;;4.73;95.76
52745;BME280;38637;49.984;20.426;2023-12-29T03:21:16;99204.59;;;4.77;95.38
52745;BME280;38637;49.984;20.426;2023-12-29T03:23:41;99166.75;;;4.59;95.48
52745;BME280;38637;49.984;20.426;2023-12-29T03:26:06;99167.50;;;4.66;95.51
52745;BME280;38637;49.984;20.426;2023-12-29T03:28:32;99190.41;;;4.82;95.60
52745;BME280;38637;49.984;20.426;2023-12-29T03:30:57;99202.75;;;4.90;95.83
52745;BME280;38637;49.984;20.426;2023-12-29T03:33:22;99184.53;;;4.85;95.67
52745;BME280;38637;49.984;20.426;2023-12-29T03:35:48;99189.84;;;4.92;96.11
52745;BME280;38637;49.984;20.426;2023-12-29T03:38:13;99101.06;;;4.40;96.03
52745;BME280;38637;49.984;20.426;2023-12-29T03:40:39;99170.44;;;4.95;95.98
52745;BME280;38637;49.984;20.426;2023-12-29T03:43:05;99172.09;;;4.96;96.14
52745;BME280;38637;49.984;20.426;2023-12-29T03:45:30;99154.47;;;4.93;95.67
52745;BME280;38637;49.984;20.426;2023-12-29T03:47:55;99139.16;;;4.87;96.24
52745;BME280;38637;49.984;20.426;2023-12-29T03:50:21;99111.53;;;4.67;96.30
52745;BME280;38637;49.984;20.426;2023-12-29T03:52:46;99142.97;;;4.79;96.45
52745;BME280;38637;49.984;20.426;2023-12-29T03:55:12;99101.66;;;4.60;95.93
52745;BME280;38637;49.984;20.426;2023-12-29T03:57:37;99121.19;;;4.74;95.90
52745;BME280;38637;49.984;20.426;2023-12-29T04:00:04;99133.81;;;4.80;96.05
52745;BME280;38637;49.984;20.426;2023-12-29T04:02:29;99135.84;;;4.85;96.18
52745;BME280;38637;49.984;20.426;2023-12-29T04:04:54;99095.88;;;4.57;96.20
52745;BME280;38637;49.984;20.426;2023-12-29T04:07:20;99128.41;;;4.80;96.07
52745;BME280;38637;49.984;20.426;2023-12-29T04:09:45;99103.53;;;4.60;96.45
52745;BME280;38637;49.984;20.426;2023-12-29T04:12:10;99121.91;;;4.70;96.62
52745;BME280;38637;49.984;20.426;2023-12-29T04:14:35;99091.03;;;4.47;96.69
52745;BME280;38637;49.984;20.426;2023-12-29T04:17:01;99125.66;;;4.69;97.19
52745;BME280;38637;49.984;20.426;2023-12-29T04:19:28;99121.53;;;4.66;96.67
52745;BME280;38637;49.984;20.426;2023-12-29T04:21:54;99119.88;;;4.65;96.61
52745;BME280;38637;49.984;20.426;2023-12-29T04:24:19;99072.13;;;4.29;96.57
52745;BME280;38637;49.984;20.426;2023-12-29T04:26:44;99104.28;;;4.49;96.47
52745;BME280;38637;49.984;20.426;2023-12-29T04:29:10;99098.38;;;4.40;95.89
52745;BME280;38637;49.984;20.426;2023-12-29T04:31:35;99123.69;;;4.46;95.99
52745;BME280;38637;49.984;20.426;2023-12-29T04:34:00;99106.66;;;4.27;95.29
52745;BME280;38637;49.984;20.426;2023-12-29T04:36:26;99119.19;;;4.21;94.79
52745;BME280;38637;49.984;20.426;2023-12-29T04:38:51;99108.78;;;4.06;94.59
52745;BME280;38637;49.984;20.426;2023-12-29T04:41:16;99102.34;;;4.07;95.06
52745;BME280;38637;49.984;20.426;2023-12-29T04:43:41;99049.72;;;3.73;95.03
52745;BME280;38637;49.984;20.426;2023-12-29T04:46:07;99117.84;;;4.12;94.82
52745;BME280;38637;49.984;20.426;2023-12-29T04:48:32;99070.22;;;3.81;94.75
52745;BME280;38637;49.984;20.426;2023-12-29T04:50:57;99104.50;;;3.99;94.51
52745;BME280;38637;49.984;20.426;2023-12-29T04:53:23;99114.88;;;4.02;95.33
52745;BME280;38637;49.984;20.426;2023-12-29T04:55:48;99090.41;;;3.78;95.10
52745;BME280;38637;49.984;20.426;2023-12-29T04:58:13;99100.09;;;3.86;94.57
52745;BME280;38637;49.984;20.426;2023-12-29T05:00:39;99101.56;;;3.82;94.45
52745;BME280;38637;49.984;20.426;2023-12-29T05:03:04;99071.47;;;3.60;94.54
52745;BME280;38637;49.984;20.426;2023-12-29T05:05:30;99122.16;;;3.83;94.06
52745;BME280;38637;49.984;20.426;2023-12-29T05:07:55;99115.97;;;3.76;94.35
52745;BME280;38637;49.984;20.426;2023-12-29T05:10:20;99108.19;;;3.67;93.85
52745;BME280;38637;49.984;20.426;2023-12-29T05:12:46;99081.28;;;3.54;94.37
52745;BME280;38637;49.984;20.426;2023-12-29T05:15:11;99099.09;;;3.62;94.64
52745;BME280;38637;49.984;20.426;2023-12-29T05:17:36;99115.91;;;3.82;94.48
52745;BME280;38637;49.984;20.426;2023-12-29T05:20:05;99106.59;;;3.78;94.97
52745;BME280;38637;49.984;20.426;2023-12-29T05:22:30;99127.75;;;4.00;95.27
52745;BME280;38637;49.984;20.426;2023-12-29T05:24:56;99114.50;;;3.98;95.42
52745;BME280;38637;49.984;20.426;2023-12-29T05:27:25;99097.75;;;3.89;95.31
52745;BME280;38637;49.984;20.426;2023-12-29T05:29:50;99113.81;;;4.03;94.18
52745;BME280;38637;49.984;20.426;2023-12-29T05:32:15;99113.19;;;4.01;95.17
52745;BME280;38637;49.984;20.426;2023-12-29T05:34:41;99093.53;;;3.94;94.45
52745;BME280;38637;49.984;20.426;2023-12-29T05:37:06;99095.72;;;4.03;94.38
52745;BME280;38637;49.984;20.426;2023-12-29T05:39:31;99091.13;;;4.04;94.13
52745;BME280;38637;49.984;20.426;2023-12-29T05:41:57;99068.34;;;4.00;94.92
52745;BME280;38637;49.984;20.426;2023-12-29T05:44:22;99082.00;;;4.05;94.41
52745;BME280;38637;49.984;20.426;2023-12-29T05:46:47;99050.13;;;3.77;95.12
52745;BME280;38637;49.984;20.426;2023-12-29T05:49:13;99108.31;;;4.09;95.57
52745;BME280;38637;49.984;20.426;2023-12-29T05:51:38;99100.66;;;4.06;95.56
52745;BME280;38637;49.984;20.426;2023-12-29T05:54:04;99111.78;;;4.17;96.02
52745;BME280;38637;49.984;20.426;2023-12-29T05:56:29;99068.94;;;4.02;96.42
52745;BME280;38637;49.984;20.426;2023-12-29T05:58:54;99080.84;;;4.12;96.06
52745;BME280;38637;49.984;20.426;2023-12-29T06:01:20;99085.34;;;4.19;96.29
52745;BME280;38637;49.984;20.426;2023-12-29T06:03:45;99056.25;;;4.02;96.10
52745;BME280;38637;49.984;20.426;2023-12-29T06:06:10;99096.31;;;4.24;96.38
52745;BME280;38637;49.984;20.426;2023-12-29T06:08:36;99068.59;;;4.10;96.10
52745;BME280;38637;49.984;20.426;2023-12-29T06:11:01;99086.09;;;4.26;96.11
52745;BME280;38637;49.984;20.426;2023-12-29T06:13:27;99112.50;;;4.42;96.28
52745;BME280;38637;49.984;20.426;2023-12-29T06:15:53;99092.69;;;4.30;95.72
52745;BME280;38637;49.984;20.426;2023-12-29T06:18:18;99070.56;;;4.21;95.87
52745;BME280;38637;49.984;20.426;2023-12-29T06:20:43;99090.34;;;4.33;96.02
52745;BME280;38637;49.984;20.426;2023-12-29T06:23:09;99109.84;;;4.54;96.03
52745;BME280;38637;49.984;20.426;2023-12-29T06:25:34;99100.03;;;4.41;96.60
52745;BME280;38637;49.984;20.426;2023-12-29T06:27:59;99117.41;;;4.64;96.21
52745;BME280;38637;49.984;20.426;2023-12-29T06:30:25;99120.63;;;4.72;96.37
52745;BME280;38637;49.984;20.426;2023-12-29T06:32:50;99077.16;;;4.55;95.71
52745;BME280;38637;49.984;20.426;2023-12-29T06:35:17;99015.09;;;4.19;96.90
52745;BME280;38637;49.984;20.426;2023-12-29T06:37:42;99117.97;;;4.84;96.65
52745;BME280;38637;49.984;20.426;2023-12-29T06:40:08;99096.53;;;4.82;96.38
52745;BME280;38637;49.984;20.426;2023-12-29T06:42:33;99108.94;;;4.90;96.52
52745;BME280;38637;49.984;20.426;2023-12-29T06:44:58;99095.25;;;4.85;96.52
52745;BME280;38637;49.984;20.426;2023-12-29T06:47:24;99105.88;;;4.98;96.56
52745;BME280;38637;49.984;20.426;2023-12-29T06:49:49;99098.81;;;4.97;96.77
52745;BME280;38637;49.984;20.426;2023-12-29T06:52:16;99109.66;;;5.09;96.50
52745;BME280;38637;49.984;20.426;2023-12-29T06:54:41;99090.94;;;5.07;96.67
52745;BME280;38637;49.984;20.426;2023-12-29T06:57:06;99110.72;;;5.20;97.08
52745;BME280;38637;49.984;20.426;2023-12-29T06:59:32;99097.66;;;5.17;97.03
52745;BME280;38637;49.984;20.426;2023-12-29T07:01:57;99134.75;;;5.28;96.90
52745;BME280;38637;49.984;20.426;2023-12-29T07:04:22;99127.13;;;5.37;97.04
52745;BME280;38637;49.984;20.426;2023-12-29T07:06:48;99108.66;;;5.34;97.01
52745;BME280;38637;49.984;20.426;2023-12-29T07:09:13;99080.97;;;5.20;96.98
52745;BME280;38637;49.984;20.426;2023-12-29T07:11:38;99117.94;;;5.49;96.69
52745;BME280;38637;49.984;20.426;2023-12-29T07:14:04;99093.47;;;5.33;97.13
52745;BME280;38637;49.984;20.426;2023-12-29T07:16:29;99123.84;;;5.58;96.67
52745;BME280;38637;49.984;20.426;2023-12-29T07:18:55;99110.19;;;5.53;96.61
52745;BME280;38637;49.984;20.426;2023-12-29T07:21:20;99123.97;;;5.63;96.26
52745;BME280;38637;49.984;20.426;2023-12-29T07:23:45;99115.38;;;5.66;95.81
52745;BME280;38637;49.984;20.426;2023-12-29T07:26:11;99128.81;;;5.73;95.75
52745;BME280;38637;49.984;20.426;2023-12-29T07:28:36;99100.06;;;5.60;95.75
52745;BME280;38637;49.984;20.426;2023-12-29T07:31:02;99086.53;;;5.60;95.63
52745;BME280;38637;49.984;20.426;2023-12-29T07:33:28;99131.75;;;5.95;95.55
52745;BME280;38637;49.984;20.426;2023-12-29T07:35:53;99098.16;;;5.84;95.92
52745;BME280;38637;49.984;20.426;2023-12-29T07:38:19;99113.13;;;6.10;95.51
52745;BME280;38637;49.984;20.426;2023-12-29T07:40:44;99104.13;;;6.21;95.39
52745;BME280;38637;49.984;20.426;2023-12-29T07:43:10;99117.91;;;6.32;95.05
52745;BME280;38637;49.984;20.426;2023-12-29T07:45:35;99104.56;;;6.30;94.56
52745;BME280;38637;49.984;20.426;2023-12-29T07:48:02;99134.22;;;6.49;94.57
52745;BME280;38637;49.984;20.426;2023-12-29T07:50:28;99096.53;;;6.35;93.74
52745;BME280;38637;49.984;20.426;2023-12-29T07:52:53;99138.91;;;6.65;92.92
52745;BME280;38637;49.984;20.426;2023-12-29T07:55:18;99143.94;;;6.73;92.68
52745;BME280;38637;49.984;20.426;2023-12-29T07:57:44;99118.94;;;6.71;92.18
52745;BME280;38637;49.984;20.426;2023-12-29T08:00:12;99089.59;;;6.68;91.81
52745;BME280;38637;49.984;20.426;2023-12-29T08:02:38;99137.84;;;7.11;91.78
52745;BME280;38637;49.984;20.426;2023-12-29T08:05:03;99132.16;;;7.13;91.56
52745;BME280;38637;49.984;20.426;2023-12-29T08:07:28;99144.78;;;7.36;91.28
52745;BME280;38637;49.984;20.426;2023-12-29T08:09:54;99121.00;;;7.26;91.30
52745;BME280;38637;49.984;20.426;2023-12-29T08:12:19;99126.19;;;7.28;91.27
52745;BME280;38637;49.984;20.426;2023-12-29T08:14:44;99123.06;;;7.36;91.38
52745;BME280;38637;49.984;20.426;2023-12-29T08:17:10;99137.38;;;7.48;91.34
52745;BME280;38637;49.984;20.426;2023-12-29T08:19:35;99100.41;;;7.30;91.35
52745;BME280;38637;49.984;20.426;2023-12-29T08:22:01;99099.84;;;7.28;91.12
52745;BME280;38637;49.984;20.426;2023-12-29T08:24:26;99129.66;;;7.57;90.30
52745;BME280;38637;49.984;20.426;2023-12-29T08:26:52;99110.28;;;7.70;88.77
52745;BME280;38637;49.984;20.426;2023-12-29T08:29:17;99089.34;;;7.88;85.36
52745;BME280;38637;49.984;20.426;2023-12-29T08:31:44;99116.16;;;8.23;85.45
52745;BME280;38637;49.984;20.426;2023-12-29T08:34:10;99117.72;;;8.58;84.27
52745;BME280;38637;49.984;20.426;2023-12-29T08:36:35;99149.78;;;9.05;81.51
52745;BME280;38637;49.984;20.426;2023-12-29T08:39:01;99125.78;;;9.29;80.94
52745;BME280;38637;49.984;20.426;2023-12-29T08:41:26;99147.38;;;9.68;79.49
52745;BME280;38637;49.984;20.426;2023-12-29T08:43:51;99095.47;;;9.57;78.29
52745;BME280;38637;49.984;20.426;2023-12-29T08:46:17;99118.09;;;9.95;77.94
52745;BME280;38637;49.984;20.426;2023-12-29T08:48:42;99128.03;;;10.17;75.25
52745;BME280;38637;49.984;20.426;2023-12-29T08:51:07;99117.66;;;10.19;75.36
52745;BME280;38637;49.984;20.426;2023-12-29T08:53:32;99142.63;;;10.43;75.14
52745;BME280;38637;49.984;20.426;2023-12-29T08:56:03;99146.84;;;10.66;73.95
52745;BME280;38637;49.984;20.426;2023-12-29T08:58:29;99153.72;;;10.89;73.25
52745;BME280;38637;49.984;20.426;2023-12-29T09:00:55;99115.47;;;10.89;72.49
52745;BME280;38637;49.984;20.426;2023-12-29T09:03:21;99122.09;;;11.13;71.90
52745;BME280;38637;49.984;20.426;2023-12-29T09:05:46;99139.63;;;11.33;70.13
52745;BME280;38637;49.984;20.426;2023-12-29T09:08:11;99139.06;;;11.51;69.82
52745;BME280;38637;49.984;20.426;2023-12-29T09:10:37;99116.38;;;11.56;67.90
52745;BME280;38637;49.984;20.426;2023-12-29T09:13:02;99151.91;;;11.56;67.08
52745;BME280;38637;49.984;20.426;2023-12-29T09:15:27;99136.34;;;11.66;66.97
52745;BME280;38637;49.984;20.426;2023-12-29T09:17:53;99101.59;;;11.62;66.32
52745;BME280;38637;49.984;20.426;2023-12-29T09:20:18;99132.75;;;11.96;65.96
52745;BME280;38637;49.984;20.426;2023-12-29T09:22:46;99136.56;;;12.16;65.15
52745;BME280;38637;49.984;20.426;2023-12-29T09:25:12;99084.09;;;11.88;63.54
52745;BME280;38637;49.984;20.426;2023-12-29T09:27:37;99128.00;;;12.38;62.83
52745;BME280;38637;49.984;20.426;2023-12-29T09:30:04;99081.81;;;12.16;61.77
52745;BME280;38637;49.984;20.426;2023-12-29T09:32:30;99103.13;;;12.24;61.61
52745;BME280;38637;49.984;20.426;2023-12-29T09:34:55;99089.38;;;12.39;62.02
52745;BME280;38637;49.984;20.426;2023-12-29T09:37:21;99099.97;;;12.61;60.13
52745;BME280;38637;49.984;20.426;2023-12-29T09:39:47;99090.41;;;12.59;59.28
52745;BME280;38637;49.984;20.426;2023-12-29T09:42:21;99059.53;;;12.43;60.16
52745;BME280;38637;49.984;20.426;2023-12-29T09:44:50;99097.59;;;12.39;58.97
52745;BME280;38637;49.984;20.426;2023-12-29T09:47:21;99116.13;;;12.58;59.00
52745;BME280;38637;49.984;20.426;2023-12-29T09:49:49;99122.72;;;12.57;59.43
52745;BME280;38637;49.984;20.426;2023-12-29T09:52:15;99094.25;;;12.53;59.17
52745;BME280;38637;49.984;20.426;2023-12-29T09:54:42;99093.16;;;12.54;58.73
52745;BME280;38637;49.984;20.426;2023-12-29T09:57:08;99112.06;;;12.55;58.40
52745;BME280;38637;49.984;20.426;2023-12-29T09:59:38;99106.81;;;12.59;59.03
52745;BME280;38637;49.984;20.426;2023-12-29T10:02:14;99071.84;;;12.40;58.96
52745;BME280;38637;49.984;20.426;2023-12-29T10:04:41;99064.16;;;12.48;59.62
52745;BME280;38637;49.984;20.426;2023-12-29T10:07:07;99032.97;;;12.44;59.74
52745;BME280;38637;49.984;20.426;2023-12-29T10:09:33;99090.81;;;12.76;60.05
52745;BME280;38637;49.984;20.426;2023-12-29T10:12:00;99098.22;;;12.81;58.74
52745;BME280;38637;49.984;20.426;2023-12-29T10:14:49;99093.06;;;12.74;58.60
52745;BME280;38637;49.984;20.426;2023-12-29T10:17:24;99037.91;;;12.36;58.43
52745;BME280;38637;49.984;20.426;2023-12-29T10:22:48;99095.19;;;12.82;58.97
52745;BME280;38637;49.984;20.426;2023-12-29T10:25:16;99027.16;;;12.55;58.49
52745;BME280;38637;49.984;20.426;2023-12-29T10:27:42;99039.84;;;12.80;57.61
52745;BME280;38637;49.984;20.426;2023-12-29T10:30:10;99071.75;;;13.05;57.61
52745;BME280;38637;49.984;20.426;2023-12-29T10:32:36;99079.59;;;13.17;56.58
52745;BME280;38637;49.984;20.426;2023-12-29T10:35:09;99069.47;;;13.13;55.95
52745;BME280;38637;49.984;20.426;2023-12-29T10:37:35;99050.22;;;13.23;56.13
52745;BME280;38637;49.984;20.426;2023-12-29T10:40:00;99061.13;;;13.33;55.45
52745;BME280;38637;49.984;20.426;2023-12-29T10:42:26;99023.38;;;13.20;55.77
52745;BME280;38637;49.984;20.426;2023-12-29T10:45:05;99059.72;;;13.41;55.23
52745;BME280;38637;49.984;20.426;2023-12-29T10:47:31;99024.13;;;13.30;55.53
52745;BME280;38637;49.984;20.426;2023-12-29T10:49:58;99053.06;;;13.47;54.67
52745;BME280;38637;49.984;20.426;2023-12-29T10:52:24;99049.41;;;13.56;54.82
52745;BME280;38637;49.984;20.426;2023-12-29T10:54:51;99043.72;;;13.48;55.02
52745;BME280;38637;49.984;20.426;2023-12-29T10:57:29;99041.13;;;13.32;55.25
52745;BME280;38637;49.984;20.426;2023-12-29T10:59:55;99009.16;;;13.13;55.20
52745;BME280;38637;49.984;20.426;2023-12-29T11:02:21;99024.66;;;12.98;54.90
52745;BME280;38637;49.984;20.426;2023-12-29T11:04:46;99039.88;;;13.15;55.56
52745;BME280;38637;49.984;20.426;2023-12-29T11:07:12;99017.81;;;12.96;55.02
52745;BME280;38637;49.984;20.426;2023-12-29T11:09:38;99001.06;;;12.97;55.27
52745;BME280;38637;49.984;20.426;2023-12-29T11:12:04;99037.38;;;13.18;55.19
52745;BME280;38637;49.984;20.426;2023-12-29T11:14:31;99021.81;;;13.08;55.33
52745;BME280;38637;49.984;20.426;2023-12-29T11:16:58;99020.56;;;12.96;54.73
52745;BME280;38637;49.984;20.426;2023-12-29T11:19:25;99032.59;;;13.00;55.07
52745;BME280;38637;49.984;20.426;2023-12-29T11:21:53;99044.66;;;12.99;54.78
52745;BME280;38637;49.984;20.426;2023-12-29T11:24:19;99019.09;;;13.08;54.78
52745;BME280;38637;49.984;20.426;2023-12-29T11:26:44;98981.97;;;12.87;54.70
52745;BME280;38637;49.984;20.426;2023-12-29T11:29:11;99012.69;;;13.18;54.94
52745;BME280;38637;49.984;20.426;2023-12-29T11:31:38;99009.00;;;13.38;53.12
52745;BME280;38637;49.984;20.426;2023-12-29T11:34:18;99014.25;;;13.35;54.60
52745;BME280;38637;49.984;20.426;2023-12-29T11:36:46;99000.56;;;13.24;54.05
52745;BME280;38637;49.984;20.426;2023-12-29T11:39:38;99022.78;;;13.28;53.96
52745;BME280;38637;49.984;20.426;2023-12-29T11:42:11;99002.31;;;13.15;54.98
52745;BME280;38637;49.984;20.426;2023-12-29T11:44:39;99022.28;;;13.21;54.38
52745;BME280;38637;49.984;20.426;2023-12-29T11:47:04;99013.22;;;13.20;54.61
52745;BME280;38637;49.984;20.426;2023-12-29T11:49:58;99038.16;;;13.24;54.95
52745;BME280;38637;49.984;20.426;2023-12-29T11:52:37;99008.25;;;13.27;54.71
52745;BME280;38637;49.984;20.426;2023-12-29T11:57:34;99002.94;;;13.41;55.00
52745;BME280;38637;49.984;20.426;2023-12-29T12:00:02;99008.78;;;13.29;55.21
52745;BME280;38637;49.984;20.426;2023-12-29T12:02:28;99015.97;;;13.25;55.15
52745;BME280;38637;49.984;20.426;2023-12-29T12:04:54;98990.88;;;13.08;54.87
52745;BME280;38637;49.984;20.426;2023-12-29T12:08:07;99030.28;;;13.12;55.35
52745;BME280;38637;49.984;20.426;2023-12-29T12:10:31;98995.56;;;13.02;56.37
52745;BME280;38637;49.984;20.426;2023-12-29T12:12:58;99019.66;;;13.05;55.60
52745;BME280;38637;49.984;20.426;2023-12-29T12:20:25;98989.31;;;12.97;54.81
52745;BME280;38637;49.984;20.426;2023-12-29T12:23:00;99016.31;;;13.14;54.61
52745;BME280;38637;49.984;20.426;2023-12-29T12:25:27;99011.09;;;13.12;54.91
52745;BME280;38637;49.984;20.426;2023-12-29T12:27:53;98983.53;;;12.98;55.48
52745;BME280;38637;49.984;20.426;2023-12-29T12:30:19;99011.66;;;13.14;55.61
52745;BME280;38637;49.984;20.426;2023-12-29T12:32:45;98991.44;;;13.05;55.41
52745;BME280;38637;49.984;20.426;2023-12-29T12:35:14;99018.28;;;13.08;54.91
52745;BME280;38637;49.984;20.426;2023-12-29T12:37:41;98989.31;;;12.97;55.26
52745;BME280;38637;49.984;20.426;2023-12-29T12:40:07;99015.66;;;13.22;55.21
52745;BME280;38637;49.984;20.426;2023-12-29T12:42:33;98993.97;;;13.30;54.57
52745;BME280;38637;49.984;20.426;2023-12-29T12:45:04;99004.78;;;13.46;53.40
52745;BME280;38637;49.984;20.426;2023-12-29T12:47:41;98996.06;;;13.44;53.14
52745;BME280;38637;49.984;20.426;2023-12-29T12:50:07;98971.53;;;13.28;54.09
52745;BME280;38637;49.984;20.426;2023-12-29T12:52:35;99010.63;;;13.68;53.03
52745;BME280;38637;49.984;20.426;2023-12-29T12:55:02;98975.81;;;13.88;52.66
52745;BME280;38637;49.984;20.426;2023-12-29T12:57:28;99018.81;;;13.92;52.02
52745;BME280;38637;49.984;20.426;2023-12-29T12:59:54;99024.09;;;13.89;51.89
52745;BME280;38637;49.984;20.426;2023-12-29T13:02:20;99010.59;;;13.92;51.90
52745;BME280;38637;49.984;20.426;2023-12-29T13:04:46;99023.03;;;14.09;51.87
52745;BME280;38637;49.984;20.426;2023-12-29T13:07:15;98981.50;;;13.91;52.24